createdAt,value
2022-10-31T00:00:57.318Z,99574.48
2022-10-31T00:03:42.977Z,99573.08
2022-10-31T00:06:14.713Z,99572.91
2022-10-31T00:08:46.389Z,99571.85
2022-10-31T00:11:18.188Z,99572.02
2022-10-31T00:13:50.095Z,99567.62
2022-10-31T00:16:23.084Z,99566.03
2022-10-31T00:18:56.232Z,99562.88
2022-10-31T00:21:28.835Z,99566.91
2022-10-31T00:24:00.896Z,99568.29
2022-10-31T00:26:33.645Z,99569.15
2022-10-31T00:29:05.574Z,99574.23
2022-10-31T00:31:37.279Z,99572.33
2022-10-31T00:34:09.536Z,99575.15
2022-10-31T00:36:41.469Z,99576.72
2022-10-31T00:39:17.052Z,99570.42
2022-10-31T00:41:49.092Z,99574.81
2022-10-31T00:44:20.756Z,99576.21
2022-10-31T00:46:52.450Z,99579.36
2022-10-31T00:49:27.083Z,99579.19
2022-10-31T00:51:58.957Z,99576.55
2022-10-31T00:54:31.923Z,99574.29
2022-10-31T00:57:03.564Z,99575.33
2022-10-31T00:59:35.328Z,99574.63
2022-10-31T01:02:07.253Z,99574.96
2022-10-31T01:04:39.025Z,99572.48
2022-10-31T01:07:12.419Z,99567.92
2022-10-31T01:09:44.322Z,99569.85
2022-10-31T01:12:16.035Z,99565.11
2022-10-31T01:14:48.264Z,99564.94
2022-10-31T01:17:22.797Z,99565.81
2022-10-31T01:19:54.596Z,99566.00
2022-10-31T01:22:26.320Z,99567.76
2022-10-31T01:24:57.995Z,99570.21
2022-10-31T01:27:31.222Z,99566.00
2022-10-31T01:30:02.885Z,99563.52
2022-10-31T01:32:35.043Z,99559.86
2022-10-31T01:35:07.701Z,99561.45
2022-10-31T01:37:39.340Z,99561.44
2022-10-31T01:40:12.973Z,99562.66
2022-10-31T01:42:44.603Z,99559.67
2022-10-31T01:45:19.340Z,99561.43
2022-10-31T01:47:52.339Z,99555.65
2022-10-31T01:50:32.795Z,99553.00
2022-10-31T01:53:09.196Z,99555.45
2022-10-31T01:55:44.896Z,99554.58
2022-10-31T01:58:24.026Z,99554.93
2022-10-31T02:01:03.302Z,99557.76
2022-10-31T02:03:38.725Z,99558.46
2022-10-31T02:06:20.214Z,99560.94
2022-10-31T02:08:52.648Z,99560.77
2022-10-31T02:11:27.130Z,99560.94
2022-10-31T02:14:00.309Z,99560.77
2022-10-31T02:16:32.338Z,99559.56
2022-10-31T02:19:04.579Z,99558.70
2022-10-31T02:21:45.980Z,99563.95
2022-10-31T02:24:47.455Z,99565.54
2022-10-31T02:27:34.988Z,99567.83
2022-10-31T02:30:15.090Z,99565.89
2022-10-31T02:33:03.932Z,99569.04
2022-10-31T02:35:50.054Z,99564.11
2022-10-31T02:38:31.770Z,99565.34
2022-10-31T02:41:12.236Z,99568.67
2022-10-31T02:44:17.293Z,99566.38
2022-10-31T02:46:55.005Z,99568.48
2022-10-31T02:49:35.165Z,99566.77
2022-10-31T02:52:18.679Z,99564.84
2022-10-31T02:54:51.755Z,99568.36
2022-10-31T02:57:27.486Z,99566.79
2022-10-31T03:00:03.013Z,99574.86
2022-10-31T03:02:53.083Z,99578.20
2022-10-31T03:05:34.798Z,99579.25
2022-10-31T03:08:15.252Z,99581.71
2022-10-31T03:10:54.286Z,99583.61
2022-10-31T03:13:34.584Z,99589.05
2022-10-31T03:16:14.439Z,99593.25
2022-10-31T03:18:51.617Z,99596.77
2022-10-31T03:21:29.781Z,99600.27
2022-10-31T03:24:03.290Z,99602.55
2022-10-31T03:26:37.779Z,99601.87
2022-10-31T03:29:13.263Z,99601.70
2022-10-31T03:31:51.167Z,99598.88
2022-10-31T03:34:23.942Z,99597.29
2022-10-31T03:37:02.037Z,99593.44
2022-10-31T03:39:36.353Z,99597.65
2022-10-31T03:42:11.100Z,99599.23
2022-10-31T03:44:46.831Z,99603.44
2022-10-31T03:47:19.050Z,99601.67
2022-10-31T03:49:53.851Z,99604.45
2022-10-31T03:52:31.133Z,99603.21
2022-10-31T03:55:07.896Z,99607.60
2022-10-31T03:57:43.441Z,99607.42
2022-10-31T04:00:18.126Z,99614.44
2022-10-31T04:02:56.518Z,99614.96
2022-10-31T04:05:29.511Z,99612.52
2022-10-31T04:08:06.821Z,99614.79
2022-10-31T04:10:40.866Z,99610.59
2022-10-31T04:13:16.358Z,99608.13
2022-10-31T04:15:53.664Z,99609.53
2022-10-31T04:18:27.860Z,99604.98
2022-10-31T04:21:07.656Z,99607.25
2022-10-31T04:23:39.791Z,99605.67
2022-10-31T04:26:27.027Z,99605.50
2022-10-31T04:28:59.335Z,99609.35
2022-10-31T04:31:32.341Z,99609.00
2022-10-31T04:34:04.018Z,99613.73
2022-10-31T04:36:35.988Z,99610.20
2022-10-31T04:39:07.914Z,99611.08
2022-10-31T04:41:44.602Z,99611.42
2022-10-31T04:44:19.949Z,99613.01
2022-10-31T04:46:54.882Z,99611.80
2022-10-31T04:49:28.007Z,99613.20
2022-10-31T04:51:59.667Z,99613.55
2022-10-31T04:54:31.758Z,99613.91
2022-10-31T04:57:29.118Z,99613.38
2022-10-31T05:00:01.056Z,99615.64
2022-10-31T05:02:34.147Z,99619.66
2022-10-31T05:05:07.272Z,99619.50
2022-10-31T05:07:44.037Z,99623.35
2022-10-31T05:10:18.184Z,99623.49
2022-10-31T05:12:55.638Z,99624.02
2022-10-31T05:15:51.416Z,99629.45
2022-10-31T05:18:42.600Z,99632.60
2022-10-31T05:21:32.991Z,99628.92
2022-10-31T05:24:08.242Z,99630.84
2022-10-31T05:26:40.257Z,99634.67
2022-10-31T05:29:11.992Z,99639.75
2022-10-31T05:31:44.255Z,99638.52
2022-10-31T05:34:25.478Z,99644.30
2022-10-31T05:37:13.580Z,99644.86
2022-10-31T05:39:45.390Z,99645.39
2022-10-31T05:42:19.752Z,99646.09
2022-10-31T05:44:52.684Z,99646.13
2022-10-31T05:47:32.465Z,99646.84
2022-10-31T05:50:28.734Z,99647.73
2022-10-31T05:53:13.199Z,99652.47
2022-10-31T05:55:49.026Z,99656.85
2022-10-31T05:58:24.687Z,99655.81
2022-10-31T06:01:04.654Z,99655.31
2022-10-31T06:03:36.581Z,99659.72
2022-10-31T06:06:11.450Z,99655.51
2022-10-31T06:08:45.542Z,99658.33
2022-10-31T06:11:19.748Z,99662.34
2022-10-31T06:14:27.022Z,99661.30
2022-10-31T06:17:00.267Z,99660.41
2022-10-31T06:22:30.359Z,99669.52
2022-10-31T06:25:02.235Z,99670.92
2022-10-31T06:27:37.862Z,99676.18
2022-10-31T06:30:16.451Z,99673.89
2022-10-31T06:32:51.552Z,99678.77
2022-10-31T06:35:25.278Z,99678.40
2022-10-31T06:37:57.689Z,99676.80
2022-10-31T06:40:35.696Z,99673.25
2022-10-31T06:43:23.025Z,99675.14
2022-10-31T06:45:56.755Z,99675.09
2022-10-31T06:48:31.958Z,99669.94
2022-10-31T06:51:25.161Z,99669.74
2022-10-31T06:53:59.772Z,99672.51
2022-10-31T06:56:31.906Z,99673.20
2022-10-31T06:59:04.078Z,99674.58
2022-10-31T07:01:59.484Z,99674.75
2022-10-31T07:04:31.715Z,99674.89
2022-10-31T07:07:03.566Z,99673.45
2022-10-31T07:09:35.491Z,99679.38
2022-10-31T07:12:09.224Z,99682.48
2022-10-31T07:14:43.516Z,99683.83
2022-10-31T07:17:16.800Z,99687.27
2022-10-31T07:19:49.691Z,99688.27
2022-10-31T07:22:21.590Z,99688.03
2022-10-31T07:24:53.464Z,99687.44
2022-10-31T07:27:52.265Z,99687.67
2022-10-31T07:30:24.168Z,99686.70
2022-10-31T07:33:00.251Z,99691.92
2022-10-31T07:35:48.423Z,99696.43
2022-10-31T07:38:20.659Z,99693.53
2022-10-31T07:40:54.997Z,99698.77
2022-10-31T07:43:28.025Z,99701.55
2022-10-31T07:46:16.339Z,99698.65
2022-10-31T07:49:07.899Z,99696.82
2022-10-31T07:51:58.524Z,99693.77
2022-10-31T07:54:33.874Z,99693.04
2022-10-31T07:57:05.657Z,99692.85
2022-10-31T07:59:37.816Z,99694.95
2022-10-31T08:02:11.159Z,99694.17
2022-10-31T08:04:58.670Z,99693.76
2022-10-31T08:07:51.834Z,99690.47
2022-10-31T08:10:24.593Z,99692.25
2022-10-31T08:13:01.352Z,99692.61
2022-10-31T08:15:35.323Z,99697.80
2022-10-31T08:18:12.513Z,99696.45
2022-10-31T08:20:45.258Z,99698.52
2022-10-31T08:23:17.714Z,99702.15
2022-10-31T08:25:50.044Z,99703.85
2022-10-31T08:28:23.125Z,99705.20
2022-10-31T08:30:55.343Z,99712.32
2022-10-31T08:33:45.272Z,99710.41
2022-10-31T08:36:35.683Z,99715.75
2022-10-31T08:39:14.800Z,99717.00
2022-10-31T08:41:46.496Z,99719.67
2022-10-31T08:44:18.639Z,99718.80
2022-10-31T08:46:50.847Z,99715.02
2022-10-31T08:49:22.636Z,99713.95
2022-10-31T08:51:54.521Z,99715.23
2022-10-31T08:54:26.477Z,99713.36
2022-10-31T08:57:01.102Z,99713.41
2022-10-31T08:59:39.857Z,99712.45
2022-10-31T09:02:30.736Z,99710.20
2022-10-31T09:05:04.560Z,99712.59
2022-10-31T09:07:36.378Z,99711.04
2022-10-31T09:10:10.110Z,99711.23
2022-10-31T09:12:42.450Z,99713.69
2022-10-31T09:15:30.505Z,99714.80
2022-10-31T09:18:16.749Z,99714.04
2022-10-31T09:21:01.827Z,99708.17
2022-10-31T09:23:35.630Z,99705.58
2022-10-31T09:26:08.383Z,99703.45
2022-10-31T09:28:47.401Z,99704.79
2022-10-31T09:31:20.500Z,99705.63
2022-10-31T09:33:57.836Z,99711.48
2022-10-31T09:36:49.820Z,99708.08
2022-10-31T09:39:25.597Z,99704.67
2022-10-31T09:42:10.097Z,99703.79
2022-10-31T09:44:52.652Z,99705.31
2022-10-31T09:47:42.937Z,99707.84
2022-10-31T09:50:43.336Z,99708.06
2022-10-31T09:53:48.580Z,99710.38
2022-10-31T09:56:25.621Z,99714.59
2022-10-31T09:59:02.823Z,99708.70
2022-10-31T10:01:45.511Z,99706.67
2022-10-31T10:04:36.801Z,99708.50
2022-10-31T10:07:25.319Z,99708.73
2022-10-31T10:10:22.659Z,99712.20
2022-10-31T10:13:34.531Z,99713.55
2022-10-31T10:16:16.940Z,99711.65
2022-10-31T10:19:01.020Z,99709.76
2022-10-31T10:21:43.481Z,99710.13
2022-10-31T10:24:29.149Z,99711.48
2022-10-31T10:27:12.444Z,99705.59
2022-10-31T10:29:51.509Z,99704.75
2022-10-31T10:32:29.675Z,99701.73
2022-10-31T10:35:12.284Z,99704.61
2022-10-31T10:37:47.393Z,99703.49
2022-10-31T10:40:25.120Z,99703.42
2022-10-31T10:43:22.534Z,99700.88
2022-10-31T10:46:20.290Z,99699.50
2022-10-31T10:48:53.840Z,99697.00
2022-10-31T10:51:54.431Z,99695.95
2022-10-31T10:54:43.725Z,99695.76
2022-10-31T10:57:24.640Z,99697.27
2022-10-31T10:59:57.143Z,99691.27
2022-10-31T11:02:32.955Z,99691.70
2022-10-31T11:05:06.055Z,99689.66
2022-10-31T11:07:44.354Z,99688.48
2022-10-31T11:10:18.000Z,99688.36
2022-10-31T11:13:03.700Z,99687.40
2022-10-31T11:15:40.140Z,99688.38
2022-10-31T11:20:58.011Z,99686.21
2022-10-31T11:23:30.812Z,99682.08
2022-10-31T11:26:05.967Z,99683.37
2022-10-31T11:28:37.766Z,99680.61
2022-10-31T11:31:14.905Z,99681.64
2022-10-31T11:33:52.665Z,99675.61
2022-10-31T11:36:27.133Z,99677.09
2022-10-31T11:39:00.858Z,99678.10
2022-10-31T11:41:37.056Z,99680.51
2022-10-31T11:44:17.209Z,99682.14
2022-10-31T11:46:52.286Z,99678.86
2022-10-31T11:49:30.733Z,99678.86
2022-10-31T11:52:06.561Z,99679.41
2022-10-31T11:54:43.696Z,99676.35
2022-10-31T11:57:28.333Z,99674.94
2022-10-31T12:00:02.156Z,99673.40
2022-10-31T12:02:44.062Z,99672.80
2022-10-31T12:05:26.090Z,99669.45
2022-10-31T12:08:03.485Z,99670.77
2022-10-31T12:10:48.338Z,99667.39
2022-10-31T12:13:34.754Z,99663.91
2022-10-31T12:16:14.941Z,99665.48
2022-10-31T12:18:59.732Z,99662.97
2022-10-31T12:21:53.090Z,99667.09
2022-10-31T12:24:41.007Z,99665.13
2022-10-31T12:27:26.511Z,99667.05
2022-10-31T12:30:15.347Z,99662.55
2022-10-31T12:33:05.449Z,99661.98
2022-10-31T12:36:01.011Z,99663.34
2022-10-31T12:38:51.595Z,99660.86
2022-10-31T12:41:38.722Z,99664.47
2022-10-31T12:44:26.117Z,99663.70
2022-10-31T12:47:15.630Z,99662.30
2022-10-31T12:49:57.485Z,99657.28
2022-10-31T12:52:44.368Z,99656.86
2022-10-31T12:55:40.074Z,99656.73
2022-10-31T12:58:17.075Z,99654.42
2022-10-31T13:00:52.273Z,99655.65
2022-10-31T13:03:31.249Z,99653.39
2022-10-31T13:06:09.881Z,99650.67
2022-10-31T13:08:45.851Z,99649.30
2022-10-31T13:11:22.598Z,99649.11
2022-10-31T13:14:04.843Z,99650.75
2022-10-31T13:16:39.829Z,99647.59
2022-10-31T13:19:19.769Z,99646.63
2022-10-31T13:21:59.689Z,99646.67
2022-10-31T13:24:37.757Z,99648.02
2022-10-31T13:27:16.935Z,99648.40
2022-10-31T13:29:58.970Z,99644.55
2022-10-31T13:32:40.309Z,99639.91
2022-10-31T13:35:20.833Z,99637.10
2022-10-31T13:38:03.145Z,99633.99
2022-10-31T13:40:45.095Z,99633.70
2022-10-31T13:43:26.103Z,99637.13
2022-10-31T13:45:58.844Z,99638.27
2022-10-31T13:48:43.688Z,99636.20
2022-10-31T13:51:25.901Z,99639.95
2022-10-31T13:54:09.294Z,99643.11
2022-10-31T13:56:42.116Z,99643.64
2022-10-31T13:59:23.541Z,99644.75
2022-10-31T14:01:58.909Z,99644.80
2022-10-31T14:04:38.796Z,99644.20
2022-10-31T14:07:13.708Z,99651.45
2022-10-31T14:09:57.325Z,99651.52
2022-10-31T14:12:33.162Z,99647.20
2022-10-31T14:15:17.502Z,99651.89
2022-10-31T14:17:52.572Z,99647.52
2022-10-31T14:20:38.152Z,99647.29
2022-10-31T14:23:34.230Z,99644.30
2022-10-31T14:26:36.294Z,99643.55
2022-10-31T14:29:26.001Z,99643.81
2022-10-31T14:32:02.031Z,99642.52
2022-10-31T14:34:37.177Z,99643.55
2022-10-31T14:37:21.247Z,99642.45
2022-10-31T14:40:07.330Z,99641.44
2022-10-31T14:42:59.330Z,99643.17
2022-10-31T14:45:41.339Z,99640.02
2022-10-31T14:48:36.229Z,99641.11
2022-10-31T14:51:15.852Z,99639.16
2022-10-31T14:53:51.592Z,99635.53
2022-10-31T14:56:28.082Z,99635.24
2022-10-31T14:59:03.473Z,99637.06
2022-10-31T15:01:38.109Z,99639.05
2022-10-31T15:04:23.740Z,99641.59
2022-10-31T15:07:01.947Z,99637.80
2022-10-31T15:09:37.845Z,99642.52
2022-10-31T15:12:26.940Z,99639.30
2022-10-31T15:15:00.373Z,99642.63
2022-10-31T15:17:32.352Z,99642.21
2022-10-31T15:20:05.932Z,99644.31
2022-10-31T15:22:37.983Z,99643.77
2022-10-31T15:25:19.184Z,99647.37
2022-10-31T15:27:52.701Z,99646.16
2022-10-31T15:30:27.564Z,99653.84
2022-10-31T15:32:59.540Z,99650.92
2022-10-31T15:35:32.718Z,99654.91
2022-10-31T15:38:05.264Z,99655.02
2022-10-31T15:40:38.630Z,99659.35
2022-10-31T15:43:16.444Z,99662.72
2022-10-31T15:45:48.355Z,99664.81
2022-10-31T15:48:24.668Z,99667.27
2022-10-31T15:50:59.547Z,99668.75
2022-10-31T15:53:37.979Z,99669.52
2022-10-31T15:56:13.521Z,99667.48
2022-10-31T15:58:49.271Z,99669.98
2022-10-31T16:01:26.686Z,99678.17
2022-10-31T16:04:23.707Z,99677.20
2022-10-31T16:07:04.449Z,99675.58
2022-10-31T16:09:36.477Z,99681.17
2022-10-31T16:12:08.334Z,99683.55
2022-10-31T16:14:43.640Z,99683.08
2022-10-31T16:17:18.703Z,99687.67
2022-10-31T16:19:55.554Z,99686.23
2022-10-31T16:22:31.137Z,99684.27
2022-10-31T16:25:07.228Z,99685.67
2022-10-31T16:27:40.806Z,99689.21
2022-10-31T16:30:32.620Z,99687.28
2022-10-31T16:33:04.784Z,99692.83
2022-10-31T16:35:38.230Z,99695.73
2022-10-31T16:38:10.673Z,99693.14
2022-10-31T16:40:42.905Z,99695.66
2022-10-31T16:43:16.567Z,99694.46
2022-10-31T16:45:49.948Z,99696.09
2022-10-31T16:48:24.370Z,99699.30
2022-10-31T16:50:56.480Z,99698.25
2022-10-31T16:53:28.434Z,99700.26
2022-10-31T16:56:03.446Z,99706.48
2022-10-31T16:58:37.716Z,99707.27
2022-10-31T17:01:10.559Z,99709.79
2022-10-31T17:03:43.044Z,99713.36
2022-10-31T17:06:16.026Z,99715.51
2022-10-31T17:08:48.100Z,99716.93
2022-10-31T17:11:23.310Z,99717.64
2022-10-31T17:13:57.553Z,99717.45
2022-10-31T17:16:29.674Z,99716.25
2022-10-31T17:19:01.479Z,99715.09
2022-10-31T17:21:34.455Z,99716.02
2022-10-31T17:24:06.545Z,99717.15
2022-10-31T17:26:38.177Z,99717.39
2022-10-31T17:29:09.994Z,99715.89
2022-10-31T17:31:42.289Z,99712.90
2022-10-31T17:34:13.978Z,99715.71
2022-10-31T17:36:50.614Z,99710.79
2022-10-31T17:39:22.967Z,99712.02
2022-10-31T17:41:54.953Z,99712.76
2022-10-31T17:44:26.677Z,99711.75
2022-10-31T17:46:58.359Z,99712.50
2022-10-31T17:49:30.029Z,99712.05
2022-10-31T17:52:01.675Z,99708.38
2022-10-31T17:54:33.385Z,99711.39
2022-10-31T17:57:05.110Z,99709.30
2022-10-31T17:59:36.816Z,99707.23
2022-10-31T18:02:10.514Z,99706.52
2022-10-31T18:04:42.277Z,99710.05
2022-10-31T18:07:19.184Z,99710.77
2022-10-31T18:09:51.004Z,99712.04
2022-10-31T18:12:23.463Z,99712.77
2022-10-31T18:14:55.605Z,99714.58
2022-10-31T18:17:27.300Z,99714.80
2022-10-31T18:19:59.149Z,99710.97
2022-10-31T18:22:30.954Z,99716.11
2022-10-31T18:25:02.833Z,99711.55
2022-10-31T18:27:34.733Z,99712.97
2022-10-31T18:30:08.220Z,99709.98
2022-10-31T18:32:39.930Z,99711.77
2022-10-31T18:35:11.987Z,99709.30
2022-10-31T18:37:43.734Z,99711.44
2022-10-31T18:40:15.716Z,99709.69
2022-10-31T18:42:47.606Z,99707.25
2022-10-31T18:45:32.475Z,99707.27
2022-10-31T18:48:15.193Z,99706.23
2022-10-31T18:50:48.124Z,99704.13
2022-10-31T18:53:19.988Z,99706.20
2022-10-31T18:55:51.887Z,99707.59
2022-10-31T18:58:23.714Z,99709.52
2022-10-31T19:00:56.239Z,99710.09
2022-10-31T19:03:29.699Z,99708.02
2022-10-31T19:06:01.373Z,99706.48
2022-10-31T19:08:35.717Z,99701.55
2022-10-31T19:11:09.787Z,99702.07
2022-10-31T19:13:43.184Z,99700.48
2022-10-31T19:16:16.578Z,99701.19
2022-10-31T19:18:48.323Z,99701.02
2022-10-31T19:21:20.509Z,99702.28
2022-10-31T19:23:56.469Z,99702.64
2022-10-31T19:26:28.929Z,99704.23
2022-10-31T19:29:01.167Z,99704.10
2022-10-31T19:31:33.058Z,99702.19
2022-10-31T19:34:04.739Z,99708.19
2022-10-31T19:36:37.177Z,99708.55
2022-10-31T19:39:08.832Z,99709.10
2022-10-31T19:41:40.921Z,99706.80
2022-10-31T19:44:15.123Z,99709.10
2022-10-31T19:46:53.292Z,99710.34
2022-10-31T19:49:25.309Z,99711.91
2022-10-31T19:51:56.988Z,99713.31
2022-10-31T19:54:29.064Z,99709.63
2022-10-31T19:57:00.887Z,99709.80
2022-10-31T19:59:39.021Z,99706.14
2022-10-31T20:02:19.229Z,99703.70
2022-10-31T20:04:51.495Z,99704.59
2022-10-31T20:07:23.431Z,99704.05
2022-10-31T20:09:55.154Z,99707.41
2022-10-31T20:12:26.879Z,99708.81
2022-10-31T20:14:58.936Z,99709.69
2022-10-31T20:17:30.655Z,99714.42
2022-10-31T20:20:07.178Z,99718.45
2022-10-31T20:22:39.099Z,99717.92
2022-10-31T20:25:11.060Z,99721.61
2022-10-31T20:27:42.880Z,99720.90
2022-10-31T20:30:15.787Z,99717.23
2022-10-31T20:33:00.897Z,99715.32
2022-10-31T20:35:32.620Z,99715.48
2022-10-31T20:38:04.963Z,99714.61
2022-10-31T20:40:37.546Z,99712.70
2022-10-31T20:43:10.559Z,99711.11
2022-10-31T20:45:42.360Z,99715.32
2022-10-31T20:48:14.247Z,99712.67
2022-10-31T20:50:45.932Z,99710.75
2022-10-31T20:53:17.650Z,99710.05
2022-10-31T20:55:49.311Z,99711.98
2022-10-31T20:58:20.963Z,99714.10
2022-10-31T21:00:52.724Z,99716.02
2022-10-31T21:03:24.815Z,99710.39
2022-10-31T21:05:58.386Z,99712.33
2022-10-31T21:08:31.521Z,99707.23
2022-10-31T21:11:06.883Z,99706.52
2022-10-31T21:13:40.852Z,99707.21
2022-10-31T21:16:14.948Z,99708.79
2022-10-31T21:18:49.243Z,99708.79
2022-10-31T21:21:27.598Z,99709.67
2022-10-31T21:24:05.846Z,99706.68
2022-10-31T21:26:40.020Z,99707.16
2022-10-31T21:29:12.753Z,99704.53
2022-10-31T21:31:45.382Z,99707.30
2022-10-31T21:34:17.190Z,99705.90
2022-10-31T21:36:48.976Z,99706.25
2022-10-31T21:39:21.178Z,99704.14
2022-10-31T21:41:52.877Z,99707.29
2022-10-31T21:44:24.668Z,99706.07
2022-10-31T21:46:56.733Z,99701.17
2022-10-31T21:49:28.490Z,99698.73
2022-10-31T21:52:00.184Z,99696.44
2022-10-31T21:54:33.288Z,99698.02
2022-10-31T21:57:05.231Z,99699.91
2022-10-31T21:59:37.154Z,99700.42
2022-10-31T22:02:10.129Z,99696.05
2022-10-31T22:04:42.247Z,99691.63
2022-10-31T22:07:13.962Z,99687.42
2022-10-31T22:09:47.499Z,99685.83
2022-10-31T22:12:19.265Z,99683.52
2022-10-31T22:14:50.961Z,99682.65
2022-10-31T22:17:22.782Z,99677.05
2022-10-31T22:19:54.560Z,99673.71
2022-10-31T22:22:26.367Z,99679.64
2022-10-31T22:24:58.098Z,99680.33
2022-10-31T22:27:30.161Z,99683.48
2022-10-31T22:30:02.069Z,99678.58
2022-10-31T22:32:33.772Z,99676.65
2022-10-31T22:35:06.189Z,99671.21
2022-10-31T22:37:37.868Z,99675.06
2022-10-31T22:40:14.337Z,99671.91
2022-10-31T22:42:46.009Z,99672.43
2022-10-31T22:45:17.997Z,99671.55
2022-10-31T22:47:49.632Z,99668.23
2022-10-31T22:50:21.340Z,99669.81
2022-10-31T22:52:53.087Z,99667.36
2022-10-31T22:55:27.392Z,99662.45
2022-10-31T22:58:00.553Z,99664.88
2022-10-31T23:00:32.600Z,99661.70
2022-10-31T23:03:04.536Z,99659.24
2022-10-31T23:05:36.252Z,99657.30
2022-10-31T23:08:09.053Z,99654.48
2022-10-31T23:10:42.258Z,99652.90
2022-10-31T23:13:31.435Z,99648.35
2022-10-31T23:16:03.175Z,99644.85
2022-10-31T23:18:49.601Z,99641.31
2022-10-31T23:21:44.031Z,99644.94
2022-10-31T23:24:15.939Z,99636.84
2022-10-31T23:27:05.182Z,99637.65
2022-10-31T23:29:38.585Z,99639.73
2022-10-31T23:32:13.167Z,99635.86
2022-10-31T23:34:45.016Z,99626.91
2022-10-31T23:37:17.747Z,99630.05
2022-10-31T23:39:50.273Z,99629.38
2022-10-31T23:42:22.608Z,99634.31
2022-10-31T23:44:54.518Z,99635.92
2022-10-31T23:47:26.652Z,99634.04
2022-10-31T23:49:58.385Z,99634.23
2022-10-31T23:52:30.734Z,99631.25
2022-10-31T23:55:02.657Z,99627.05
2022-10-31T23:57:34.684Z,99621.61
